createdAt,value
2023-01-27T00:00:37.984Z,97262.19
2023-01-27T00:03:04.911Z,97264.88
2023-01-27T00:05:31.769Z,97258.25
2023-01-27T00:08:00.466Z,97261.88
2023-01-27T00:10:27.593Z,97253.56
2023-01-27T00:13:12.991Z,97253.56
2023-01-27T00:15:40.376Z,97248.69
2023-01-27T00:18:07.242Z,97246.72
2023-01-27T00:20:52.497Z,97241.34
2023-01-27T00:23:40.344Z,97236.69
2023-01-27T00:26:09.925Z,97237.41
2023-01-27T00:28:39.596Z,97240.28
2023-01-27T00:31:08.695Z,97233.47
2023-01-27T00:33:35.549Z,97234.91
2023-01-27T00:36:05.020Z,97232.72
2023-01-27T00:38:35.296Z,97230.03
2023-01-27T00:41:20.195Z,97230.25
2023-01-27T00:43:50.558Z,97220.94
2023-01-27T00:46:18.123Z,97218.97
2023-01-27T00:48:45.335Z,97221.66
2023-01-27T00:51:13.778Z,97217.00
2023-01-27T00:53:41.443Z,97217.00
2023-01-27T00:56:08.669Z,97216.75
2023-01-27T00:58:35.920Z,97223.63
2023-01-27T01:01:05.553Z,97214.06
2023-01-27T01:03:34.179Z,97222.69
2023-01-27T01:06:06.808Z,97222.69
2023-01-27T01:08:35.496Z,97222.16
2023-01-27T01:11:03.821Z,97226.81
2023-01-27T01:13:30.751Z,97217.50
2023-01-27T01:15:57.582Z,97215.31
2023-01-27T01:18:24.559Z,97219.47
2023-01-27T01:20:51.309Z,97216.56
2023-01-27T01:23:18.245Z,97217.09
2023-01-27T01:25:55.600Z,97218.53
2023-01-27T01:28:22.661Z,97218.53
2023-01-27T01:30:49.596Z,97220.69
2023-01-27T01:33:17.574Z,97223.41
2023-01-27T01:35:44.544Z,97220.69
2023-01-27T01:38:11.329Z,97215.13
2023-01-27T01:40:44.619Z,97215.13
2023-01-27T01:43:16.907Z,97219.25
2023-01-27T01:45:55.441Z,97221.94
2023-01-27T01:48:34.651Z,97215.31
2023-01-27T01:51:31.701Z,97217.81
2023-01-27T01:54:05.579Z,97210.44
2023-01-27T01:56:43.647Z,97213.88
2023-01-27T01:59:15.757Z,97211.91
2023-01-27T02:01:42.561Z,97207.22
2023-01-27T02:04:13.513Z,97205.06
2023-01-27T02:07:02.728Z,97210.97
2023-01-27T02:09:29.695Z,97210.25
2023-01-27T02:11:57.896Z,97202.88
2023-01-27T02:14:24.932Z,97200.19
2023-01-27T02:16:53.209Z,97200.91
2023-01-27T02:19:30.514Z,97204.84
2023-01-27T02:21:58.189Z,97205.56
2023-01-27T02:24:32.592Z,97206.31
2023-01-27T02:27:00.444Z,97207.75
2023-01-27T02:29:28.856Z,97198.94
2023-01-27T02:31:55.842Z,97205.50
2023-01-27T02:34:27.689Z,97193.97
2023-01-27T02:36:58.625Z,97199.88
2023-01-27T02:39:29.519Z,97198.41
2023-01-27T02:41:58.167Z,97195.19
2023-01-27T02:44:26.040Z,97203.81
2023-01-27T02:46:52.968Z,97196.97
2023-01-27T02:49:19.760Z,97198.94
2023-01-27T02:51:46.519Z,97195.53
2023-01-27T02:54:13.298Z,97198.22
2023-01-27T02:56:41.565Z,97196.25
2023-01-27T02:59:09.971Z,97188.16
2023-01-27T03:01:39.612Z,97194.28
2023-01-27T03:04:08.048Z,97188.88
2023-01-27T03:06:34.808Z,97187.94
2023-01-27T03:09:01.506Z,97191.88
2023-01-27T03:11:46.912Z,97191.38
2023-01-27T03:14:13.823Z,97184.50
2023-01-27T03:16:59.229Z,97193.31
2023-01-27T03:19:26.877Z,97189.16
2023-01-27T03:21:54.203Z,97188.44
2023-01-27T03:24:22.797Z,97188.97
2023-01-27T03:26:51.094Z,97185.31
2023-01-27T03:29:40.569Z,97184.09
2023-01-27T03:32:07.359Z,97189.78
2023-01-27T03:34:34.527Z,97188.81
2023-01-27T03:37:32.712Z,97191.75
2023-01-27T03:40:18.117Z,97200.56
2023-01-27T03:43:03.444Z,97192.25
2023-01-27T03:45:48.710Z,97195.69
2023-01-27T03:48:18.464Z,97199.59
2023-01-27T03:50:45.124Z,97197.88
2023-01-27T03:53:11.875Z,97198.59
2023-01-27T03:55:39.188Z,97197.34
2023-01-27T03:58:20.354Z,97194.22
2023-01-27T04:00:49.858Z,97199.59
2023-01-27T04:03:35.285Z,97198.88
2023-01-27T04:06:25.654Z,97199.13
2023-01-27T04:08:52.588Z,97200.56
2023-01-27T04:11:37.873Z,97196.41
2023-01-27T04:14:05.927Z,97198.78
2023-01-27T04:16:33.072Z,97202.75
2023-01-27T04:19:00.270Z,97197.34
2023-01-27T04:21:26.965Z,97201.00
2023-01-27T04:23:53.967Z,97201.00
2023-01-27T04:26:20.857Z,97195.59
2023-01-27T04:28:48.490Z,97200.47
2023-01-27T04:31:15.792Z,97198.50
2023-01-27T04:33:43.583Z,97206.06
2023-01-27T04:36:12.672Z,97202.88
2023-01-27T04:38:39.415Z,97202.34
2023-01-27T04:41:06.295Z,97199.16
2023-01-27T04:43:33.226Z,97201.13
2023-01-27T04:46:00.282Z,97202.56
2023-01-27T04:48:27.092Z,97197.91
2023-01-27T04:50:53.805Z,97192.72
2023-01-27T04:53:20.588Z,97200.81
2023-01-27T04:55:48.800Z,97203.00
2023-01-27T04:58:20.152Z,97200.31
2023-01-27T05:00:47.249Z,97199.06
2023-01-27T05:03:14.546Z,97201.25
2023-01-27T05:05:41.861Z,97200.22
2023-01-27T05:08:10.175Z,97193.56
2023-01-27T05:10:37.158Z,97191.09
2023-01-27T05:13:03.922Z,97194.53
2023-01-27T05:15:31.237Z,97194.00
2023-01-27T05:17:57.959Z,97196.16
2023-01-27T05:20:24.767Z,97198.38
2023-01-27T05:22:52.251Z,97206.66
2023-01-27T05:25:19.093Z,97199.31
2023-01-27T05:27:51.024Z,97205.41
2023-01-27T05:30:23.608Z,97197.56
2023-01-27T05:32:50.903Z,97193.63
2023-01-27T05:35:18.127Z,97199.72
2023-01-27T05:37:44.920Z,97207.28
2023-01-27T05:40:12.355Z,97210.00
2023-01-27T05:42:39.159Z,97216.09
2023-01-27T05:45:06.866Z,97215.63
2023-01-27T05:47:33.608Z,97210.41
2023-01-27T05:50:00.278Z,97210.94
2023-01-27T05:52:27.087Z,97219.97
2023-01-27T05:54:53.759Z,97216.34
2023-01-27T05:57:20.520Z,97225.66
2023-01-27T05:59:47.229Z,97227.41
2023-01-27T06:02:15.581Z,97220.56
2023-01-27T06:04:42.454Z,97220.88
2023-01-27T06:07:09.442Z,97220.34
2023-01-27T06:09:38.395Z,97222.31
2023-01-27T06:12:05.295Z,97224.63
2023-01-27T06:14:32.039Z,97221.69
2023-01-27T06:17:00.904Z,97214.13
2023-01-27T06:19:27.691Z,97224.19
2023-01-27T06:21:54.429Z,97217.84
2023-01-27T06:24:21.251Z,97222.72
2023-01-27T06:26:49.003Z,97228.84
2023-01-27T06:29:15.836Z,97225.44
2023-01-27T06:31:42.661Z,97223.22
2023-01-27T06:34:09.509Z,97225.72
2023-01-27T06:36:37.147Z,97231.63
2023-01-27T06:39:04.068Z,97230.69
2023-01-27T06:41:30.779Z,97232.94
2023-01-27T06:43:57.902Z,97234.41
2023-01-27T06:46:24.716Z,97243.00
2023-01-27T06:48:51.511Z,97239.56
2023-01-27T06:51:18.981Z,97244.25
2023-01-27T06:53:45.941Z,97249.63
2023-01-27T06:56:12.766Z,97246.22
2023-01-27T06:58:39.822Z,97252.84
2023-01-27T07:01:07.303Z,97250.88
2023-01-27T07:03:36.993Z,97258.44
2023-01-27T07:32:52.582Z,97262.28
2023-01-27T08:05:43.236Z,97269.91
2023-01-27T08:08:20.901Z,97272.84
2023-01-27T08:13:43.100Z,97284.56
2023-01-27T08:16:12.479Z,97283.81
2023-01-27T08:18:39.074Z,97286.47
2023-01-27T08:21:06.890Z,97283.78
2023-01-27T08:23:33.774Z,97271.09
2023-01-27T08:26:01.706Z,97285.22
2023-01-27T08:31:24.031Z,97291.00
2023-01-27T08:33:51.959Z,97291.00
2023-01-27T08:36:19.868Z,97300.28
2023-01-27T08:38:46.676Z,97298.06
2023-01-27T08:41:14.357Z,97304.16
2023-01-27T08:43:41.428Z,97309.53
2023-01-27T08:46:09.002Z,97307.38
2023-01-27T08:48:39.875Z,97315.91
2023-01-27T08:51:07.561Z,97309.34
2023-01-27T08:53:37.745Z,97310.28
2023-01-27T08:56:09.437Z,97320.25
2023-01-27T08:58:45.011Z,97323.47
2023-01-27T09:01:23.259Z,97326.16
2023-01-27T09:03:55.631Z,97325.66
2023-01-27T09:09:27.228Z,97331.66
2023-01-27T09:11:55.332Z,97335.25
2023-01-27T09:14:22.324Z,97335.63
2023-01-27T09:16:48.907Z,97334.28
2023-01-27T09:19:16.103Z,97333.47
2023-01-27T09:21:42.746Z,97339.06
2023-01-27T09:24:12.552Z,97350.34
2023-01-27T09:26:43.958Z,97330.31
2023-01-27T09:29:11.263Z,97339.88
2023-01-27T09:31:38.102Z,97329.75
2023-01-27T09:34:05.315Z,97327.16
2023-01-27T09:36:32.666Z,97338.63
2023-01-27T09:39:00.964Z,97328.09
2023-01-27T09:41:27.742Z,97328.38
2023-01-27T09:44:13.559Z,97330.63
2023-01-27T09:46:50.232Z,97330.66
2023-01-27T09:49:35.521Z,97337.97
2023-01-27T09:52:05.256Z,97343.63
2023-01-27T09:54:38.803Z,97344.34
2023-01-27T09:57:15.517Z,97339.25
2023-01-27T09:59:59.122Z,97345.13
2023-01-27T10:02:46.515Z,97342.72
2023-01-27T10:05:13.453Z,97344.66
2023-01-27T10:07:40.271Z,97345.88
2023-01-27T10:10:07.094Z,97351.50
2023-01-27T10:12:33.990Z,97350.25
2023-01-27T10:15:06.790Z,97341.63
2023-01-27T10:17:52.402Z,97344.34
2023-01-27T10:20:39.697Z,97344.84
2023-01-27T10:23:10.114Z,97342.44
2023-01-27T10:25:45.973Z,97347.31
2023-01-27T10:28:21.572Z,97355.31
2023-01-27T10:31:01.279Z,97352.59
2023-01-27T10:33:52.310Z,97344.81
2023-01-27T10:36:27.413Z,97341.09
2023-01-27T10:39:27.045Z,97342.06
2023-01-27T10:42:03.939Z,97347.38
2023-01-27T10:44:43.382Z,97352.50
2023-01-27T10:47:26.826Z,97343.44
2023-01-27T10:49:57.505Z,97346.09
2023-01-27T10:52:30.190Z,97345.78
2023-01-27T10:55:12.315Z,97354.28
2023-01-27T10:57:54.209Z,97350.84
2023-01-27T11:01:01.661Z,97348.13
2023-01-27T11:03:41.393Z,97348.47
2023-01-27T11:06:13.581Z,97348.16
2023-01-27T11:08:43.292Z,97346.31
2023-01-27T11:11:29.291Z,97354.78
2023-01-27T11:14:09.785Z,97340.00
2023-01-27T11:16:39.198Z,97332.66
2023-01-27T11:19:17.180Z,97337.75
2023-01-27T11:21:43.969Z,97338.13
2023-01-27T11:24:28.784Z,97342.09
2023-01-27T11:27:01.310Z,97341.28
2023-01-27T11:29:36.743Z,97332.47
2023-01-27T11:32:43.539Z,97330.66
2023-01-27T11:35:11.876Z,97327.34
2023-01-27T11:37:44.734Z,97331.22
2023-01-27T11:40:36.089Z,97333.13
2023-01-27T11:43:03.986Z,97327.59
2023-01-27T11:45:34.107Z,97330.06
2023-01-27T11:48:02.483Z,97318.25
2023-01-27T11:50:32.335Z,97328.78
2023-01-27T11:53:11.242Z,97331.88
2023-01-27T11:55:40.871Z,97324.13
2023-01-27T11:58:14.971Z,97322.34
2023-01-27T12:00:48.367Z,97316.16
2023-01-27T12:03:22.214Z,97319.28
2023-01-27T12:05:56.140Z,97315.63
2023-01-27T12:08:46.653Z,97316.59
2023-01-27T12:11:24.543Z,97311.13
2023-01-27T12:13:57.545Z,97319.94
2023-01-27T12:16:27.739Z,97310.03
2023-01-27T12:19:01.228Z,97311.56
2023-01-27T12:21:37.964Z,97310.31
2023-01-27T12:24:07.387Z,97312.22
2023-01-27T12:26:37.444Z,97309.81
2023-01-27T12:29:07.423Z,97297.44
2023-01-27T12:31:47.398Z,97297.50
2023-01-27T12:34:26.345Z,97293.13
2023-01-27T12:36:53.520Z,97298.88
2023-01-27T12:39:30.403Z,97300.53
2023-01-27T12:41:57.487Z,97304.22
2023-01-27T12:44:29.919Z,97302.72
2023-01-27T12:47:03.404Z,97302.13
2023-01-27T12:49:36.211Z,97294.97
2023-01-27T12:52:05.102Z,97295.75
2023-01-27T12:54:33.319Z,97304.31
2023-01-27T12:57:06.530Z,97300.81
2023-01-27T12:59:33.644Z,97298.22
2023-01-27T13:02:24.667Z,97302.81
2023-01-27T13:04:54.785Z,97296.78
2023-01-27T13:07:39.406Z,97296.00
2023-01-27T13:10:20.065Z,97299.25
2023-01-27T13:12:51.992Z,97293.59
2023-01-27T13:15:21.556Z,97294.75
2023-01-27T13:17:56.270Z,97301.50
2023-01-27T13:20:26.537Z,97293.84
2023-01-27T13:23:06.233Z,97310.78
2023-01-27T13:25:43.061Z,97303.28
2023-01-27T13:28:15.761Z,97310.53
2023-01-27T13:30:47.033Z,97314.63
2023-01-27T13:33:52.544Z,97326.91
2023-01-27T13:36:29.934Z,97312.13
2023-01-27T13:39:33.967Z,97304.59
2023-01-27T13:42:16.341Z,97311.41
2023-01-27T13:44:46.676Z,97309.38
2023-01-27T13:47:20.448Z,97304.50
2023-01-27T13:49:53.456Z,97303.56
2023-01-27T13:52:20.243Z,97309.25
2023-01-27T13:54:46.948Z,97312.22
2023-01-27T13:57:25.310Z,97327.31
2023-01-27T13:59:57.911Z,97316.28
2023-01-27T14:02:33.983Z,97310.47
2023-01-27T14:05:20.324Z,97320.50
2023-01-27T14:08:01.449Z,97318.16
2023-01-27T14:10:47.700Z,97328.19
2023-01-27T14:13:26.582Z,97317.75
2023-01-27T14:16:02.616Z,97320.59
2023-01-27T14:18:40.121Z,97324.66
2023-01-27T14:21:10.326Z,97330.03
2023-01-27T14:23:47.151Z,97327.88
2023-01-27T14:26:35.754Z,97324.84
2023-01-27T14:29:21.440Z,97330.31
2023-01-27T14:32:01.710Z,97338.63
2023-01-27T14:34:36.466Z,97331.06
2023-01-27T14:37:12.507Z,97340.06
2023-01-27T14:39:48.425Z,97352.56
2023-01-27T14:42:50.917Z,97359.72
2023-01-27T14:45:28.540Z,97360.50
2023-01-27T14:48:22.099Z,97365.22
2023-01-27T14:50:58.199Z,97364.59
2023-01-27T14:53:47.695Z,97358.31
2023-01-27T14:56:46.926Z,97367.13
2023-01-27T14:59:50.278Z,97369.06
2023-01-27T15:02:35.970Z,97360.53
2023-01-27T15:05:08.950Z,97371.50
2023-01-27T15:07:59.260Z,97368.56
2023-01-27T15:10:30.987Z,97366.09
2023-01-27T15:13:23.500Z,97371.28
2023-01-27T15:16:18.737Z,97378.66
2023-01-27T15:18:48.580Z,97370.41
2023-01-27T15:21:27.578Z,97379.25
2023-01-27T15:24:12.752Z,97380.06
2023-01-27T15:26:40.280Z,97387.50
2023-01-27T15:29:09.248Z,97382.59
2023-01-27T15:31:36.282Z,97396.47
2023-01-27T15:34:02.991Z,97396.47
2023-01-27T15:36:32.673Z,97387.75
2023-01-27T15:39:11.829Z,97388.97
2023-01-27T15:41:53.883Z,97388.00
2023-01-27T15:44:40.999Z,97389.94
2023-01-27T15:47:12.010Z,97392.88
2023-01-27T15:49:42.509Z,97400.94
2023-01-27T15:52:19.777Z,97401.19
2023-01-27T15:54:50.930Z,97395.09
2023-01-27T15:57:28.948Z,97396.06
2023-01-27T16:00:04.275Z,97387.03
2023-01-27T16:02:45.323Z,97396.09
2023-01-27T16:05:46.060Z,97395.88
2023-01-27T16:08:15.967Z,97398.78
2023-01-27T16:10:43.424Z,97403.69
2023-01-27T16:13:28.846Z,97407.34
2023-01-27T16:16:17.446Z,97405.91
2023-01-27T16:19:01.186Z,97410.28
2023-01-27T16:21:37.254Z,97419.34
2023-01-27T16:24:24.606Z,97416.41
2023-01-27T16:27:04.212Z,97421.78
2023-01-27T16:29:59.643Z,97422.50
2023-01-27T16:32:35.993Z,97417.88
2023-01-27T16:35:05.169Z,97411.78
2023-01-27T16:37:38.651Z,97413.97
2023-01-27T16:40:14.175Z,97413.97
2023-01-27T16:42:47.561Z,97422.25
2023-01-27T16:45:26.965Z,97424.69
2023-01-27T16:47:58.944Z,97420.56
2023-01-27T16:50:36.279Z,97414.72
2023-01-27T16:53:04.985Z,97412.03
2023-01-27T16:55:31.777Z,97419.09
2023-01-27T16:57:59.831Z,97414.47
2023-01-27T17:00:29.594Z,97424.25
2023-01-27T17:02:59.447Z,97418.38
2023-01-27T17:05:26.743Z,97427.88
2023-01-27T17:08:18.007Z,97420.56
2023-01-27T17:10:52.515Z,97445.19
2023-01-27T17:13:31.981Z,97457.66
2023-01-27T17:15:59.864Z,97448.59
2023-01-27T17:18:26.953Z,97451.50
2023-01-27T17:20:54.392Z,97452.16
2023-01-27T17:23:42.268Z,97463.09
2023-01-27T17:26:16.756Z,97463.00
2023-01-27T17:28:46.026Z,97461.47
2023-01-27T17:31:18.525Z,97468.47
2023-01-27T17:33:50.272Z,97474.75
2023-01-27T17:36:17.771Z,97473.72
2023-01-27T17:38:49.483Z,97476.84
2023-01-27T17:41:30.417Z,97475.31
2023-01-27T17:44:01.388Z,97476.72
2023-01-27T17:46:35.145Z,97479.38
2023-01-27T17:49:07.136Z,97479.78
2023-01-27T17:51:40.549Z,97485.84
2023-01-27T17:54:19.527Z,97482.38
2023-01-27T17:56:46.415Z,97486.28
2023-01-27T17:59:20.465Z,97480.59
2023-01-27T18:01:49.701Z,97477.13
2023-01-27T18:04:16.655Z,97485.44
2023-01-27T18:06:43.575Z,97487.34
2023-01-27T18:09:18.754Z,97494.41
2023-01-27T18:11:56.793Z,97500.53
2023-01-27T18:14:24.260Z,97505.44
2023-01-27T18:17:00.522Z,97506.84
2023-01-27T18:19:27.807Z,97509.75
2023-01-27T18:22:12.534Z,97514.34
2023-01-27T18:24:40.323Z,97517.00
2023-01-27T18:27:49.376Z,97515.47
2023-01-27T18:30:19.155Z,97516.16
2023-01-27T18:32:48.704Z,97525.22
2023-01-27T18:35:28.661Z,97526.16
2023-01-27T18:38:23.710Z,97535.94
2023-01-27T18:40:50.463Z,97524.84
2023-01-27T18:43:17.272Z,97526.34
2023-01-27T18:45:44.526Z,97525.09
2023-01-27T18:48:16.456Z,97515.53
2023-01-27T18:50:45.987Z,97515.09
2023-01-27T18:53:18.709Z,97518.06
2023-01-27T18:55:45.915Z,97515.59
2023-01-27T18:58:17.863Z,97499.88
2023-01-27T19:00:52.735Z,97503.75
2023-01-27T19:03:25.017Z,97505.91
2023-01-27T19:05:52.343Z,97510.31
2023-01-27T19:08:21.659Z,97503.97
2023-01-27T19:10:49.453Z,97509.56
2023-01-27T19:13:16.840Z,97509.53
2023-01-27T19:15:50.722Z,97509.97
2023-01-27T19:18:32.411Z,97513.59
2023-01-27T19:20:59.333Z,97517.28
2023-01-27T19:23:26.126Z,97519.66
2023-01-27T19:25:54.517Z,97516.97
2023-01-27T19:28:27.889Z,97521.88
2023-01-27T19:30:54.653Z,97531.16
2023-01-27T19:33:23.224Z,97522.88
2023-01-27T19:36:03.211Z,97532.72
2023-01-27T19:38:30.414Z,97526.59
2023-01-27T19:40:57.239Z,97519.50
2023-01-27T19:43:24.089Z,97533.06
2023-01-27T19:45:52.598Z,97545.28
2023-01-27T19:48:24.862Z,97535.75
2023-01-27T19:50:52.730Z,97542.38
2023-01-27T19:53:20.531Z,97540.41
2023-01-27T19:55:47.806Z,97547.06
2023-01-27T19:58:23.354Z,97546.09
2023-01-27T20:00:50.943Z,97544.13
2023-01-27T20:03:17.854Z,97551.72
2023-01-27T20:05:45.146Z,97549.75
2023-01-27T20:08:15.571Z,97554.63
2023-01-27T20:11:20.168Z,97548.97
2023-01-27T20:13:47.205Z,97553.09
2023-01-27T20:16:14.197Z,97549.44
2023-01-27T20:18:41.106Z,97551.66
2023-01-27T20:21:12.297Z,97543.06
2023-01-27T20:23:39.901Z,97544.28
2023-01-27T20:26:11.749Z,97560.47
2023-01-27T20:28:38.780Z,97549.97
2023-01-27T20:31:10.447Z,97558.03
2023-01-27T20:33:37.319Z,97555.13
2023-01-27T20:36:10.917Z,97557.31
2023-01-27T20:38:37.885Z,97554.84
2023-01-27T20:41:12.356Z,97566.06
2023-01-27T20:43:39.246Z,97553.84
2023-01-27T20:46:10.958Z,97564.63
2023-01-27T20:48:37.988Z,97562.88
2023-01-27T20:51:07.463Z,97555.50
2023-01-27T20:53:37.116Z,97560.41
2023-01-27T20:56:04.344Z,97549.31
2023-01-27T20:58:31.641Z,97554.66
2023-01-27T21:01:11.394Z,97555.16
2023-01-27T21:03:39.153Z,97546.81
2023-01-27T21:06:07.255Z,97566.13
2023-01-27T21:08:34.609Z,97554.31
2023-01-27T21:11:03.115Z,97548.91
2023-01-27T21:13:30.373Z,97562.91
2023-01-27T21:15:57.211Z,97556.06
2023-01-27T21:18:27.150Z,97552.34
2023-01-27T21:20:55.437Z,97541.06
2023-01-27T21:23:23.492Z,97551.56
2023-01-27T21:25:50.995Z,97554.47
2023-01-27T21:28:18.496Z,97552.00
2023-01-27T21:30:45.709Z,97560.59
2023-01-27T21:33:12.943Z,97556.94
2023-01-27T21:35:39.781Z,97553.97
2023-01-27T21:38:06.575Z,97551.47
2023-01-27T21:40:34.749Z,97549.50
2023-01-27T21:43:20.048Z,97557.31
2023-01-27T21:45:46.818Z,97555.34
2023-01-27T21:48:15.056Z,97555.34
2023-01-27T21:50:41.924Z,97557.84
2023-01-27T21:53:10.650Z,97551.72
2023-01-27T21:55:38.785Z,97554.91
2023-01-27T21:58:05.886Z,97556.59
2023-01-27T22:00:32.762Z,97554.63
2023-01-27T22:03:01.649Z,97548.72
2023-01-27T22:05:30.042Z,97548.22
2023-01-27T22:07:57.187Z,97547.91
2023-01-27T22:10:26.902Z,97548.16
2023-01-27T22:12:58.526Z,97560.91
2023-01-27T22:15:28.690Z,97559.44
2023-01-27T22:17:59.138Z,97561.66
2023-01-27T22:20:26.995Z,97567.53
2023-01-27T22:22:56.946Z,97558.50
2023-01-27T22:25:27.144Z,97568.25
2023-01-27T22:27:55.350Z,97560.16
2023-01-27T22:30:22.157Z,97562.66
2023-01-27T22:32:49.777Z,97558.72
2023-01-27T22:35:18.297Z,97559.66
2023-01-27T22:37:45.922Z,97551.06
2023-01-27T22:40:13.555Z,97554.22
2023-01-27T22:42:40.341Z,97558.34
2023-01-27T22:45:11.023Z,97546.31
2023-01-27T22:47:37.916Z,97552.69
2023-01-27T22:50:04.995Z,97545.53
2023-01-27T22:52:35.192Z,97543.06
2023-01-27T22:55:02.611Z,97544.72
2023-01-27T22:57:31.366Z,97552.81
2023-01-27T22:59:58.855Z,97547.94
2023-01-27T23:02:27.980Z,97552.59
2023-01-27T23:04:54.895Z,97551.56
2023-01-27T23:07:21.831Z,97556.97
2023-01-27T23:09:48.627Z,97548.44
2023-01-27T23:12:15.613Z,97553.09
2023-01-27T23:14:42.480Z,97547.50
2023-01-27T23:17:09.287Z,97550.72
2023-01-27T23:19:36.055Z,97543.34
2023-01-27T23:22:02.855Z,97543.06
2023-01-27T23:24:29.652Z,97549.91
2023-01-27T23:26:56.329Z,97544.50
2023-01-27T23:29:25.527Z,97549.38
2023-01-27T23:31:53.043Z,97554.25
2023-01-27T23:34:20.120Z,97543.69
2023-01-27T23:36:47.728Z,97541.94
2023-01-27T23:39:15.897Z,97538.50
2023-01-27T23:41:42.667Z,97537.06
2023-01-27T23:44:11.470Z,97535.09
2023-01-27T23:46:38.404Z,97535.09
2023-01-27T23:49:05.286Z,97542.47
2023-01-27T23:51:32.237Z,97541.00
2023-01-27T23:53:59.489Z,97539.53
2023-01-27T23:56:26.322Z,97540.56
2023-01-27T23:58:53.288Z,97532.25
